Página principal
METAR-TAF:

METAR-TAF

Aeroportos :

Bengasi, Líbia

Aeroporto Internacional de Benina

latitude: 32-06N, longitude: 020-16E, altura: 131 m

Observação actual do tempo

O boletim foi feito há 17 minutos, às 19:00 UTC
Vento 10 kt de nordeste
Temperatura 21°C
Humidade 49%
Pressão 1013 hPa
Visibilidade 10 km ou mais
Poucas nuvensa uma altura de 2000 ft
Nuvens fragmentadasa uma altura de 20000 ft

METAR: HLLB 261900Z 05010KT 9999 FEW020 BKN200 21/10 Q1013

Hora: 21:17 (19:17 UTC)

Previsão

O boletim foi feito há 8 horas e 17 minutos, às 11:00 UTC
Previsão válida de 26 às 12 UTC a 27 às 12 UTC
Vento 2 kt com direcção variável
Visibilidade: 8000 m
Tornando-se
de 26 às 22 UTC a 26 às 24 UTC
Vento 10 kt de es-nordeste

TAF: HLLB 261100Z 2612/2712 VRB02KT 8000 NSC BECMG 2622/2624 06010KT

Observações e previsões do tempo de mais de 4000 aeroportos (mensagens METAR e TAF).

As estações disponíveis são os pontos amarelos e vermelhos sobre o mapa.

Mova o rato sobre o mapa para ver o nome da estação.

Depois clique no ponto para visualizar as observações e previsões meteorológicas.

Para alterar o mapa : clique nos botões verdes com uma cruz preta para aumentar o zoom; no botão verde com uma pitada de zoom; ou nas setas verdes para mapas adjacentes.


METAR-TAF: